createdAt,value
2023-01-18T00:00:20.567Z,81.10
2023-01-18T00:02:49.324Z,81.20
2023-01-18T00:05:17.612Z,81.20
2023-01-18T00:07:47.024Z,81.10
2023-01-18T00:10:15.455Z,81.10
2023-01-18T00:12:43.477Z,81.00
2023-01-18T00:15:12.529Z,81.00
2023-01-18T00:17:47.777Z,80.90
2023-01-18T00:20:16.301Z,80.90
2023-01-18T00:22:46.335Z,80.80
2023-01-18T00:25:14.527Z,80.90
2023-01-18T00:27:47.726Z,80.80
2023-01-18T00:30:18.271Z,80.90
2023-01-18T00:32:46.395Z,81.00
2023-01-18T00:35:15.391Z,80.90
2023-01-18T00:37:45.208Z,81.00
2023-01-18T00:40:15.021Z,80.80
2023-01-18T00:43:00.794Z,80.80
2023-01-18T00:45:29.278Z,80.80
2023-01-18T00:47:58.247Z,80.90
2023-01-18T00:50:26.736Z,80.90
2023-01-18T00:52:57.845Z,80.90
2023-01-18T00:55:27.956Z,80.90
2023-01-18T00:57:55.980Z,80.80
2023-01-18T01:00:26.759Z,80.80
2023-01-18T01:02:55.084Z,80.80
2023-01-18T01:05:42.980Z,80.80
2023-01-18T01:08:17.356Z,80.70
2023-01-18T01:10:48.264Z,80.60
2023-01-18T01:13:35.663Z,80.70
2023-01-18T01:16:24.713Z,80.70
2023-01-18T01:19:10.572Z,80.60
2023-01-18T01:21:56.460Z,80.60
2023-01-18T01:24:42.187Z,80.70
2023-01-18T01:27:12.339Z,80.60
2023-01-18T01:29:40.739Z,80.60
2023-01-18T01:32:08.879Z,80.60
2023-01-18T01:34:37.083Z,80.50
2023-01-18T01:37:05.497Z,80.70
2023-01-18T01:39:33.600Z,80.60
2023-01-18T01:42:01.653Z,80.70
2023-01-18T01:44:50.183Z,80.60
2023-01-18T01:47:37.306Z,80.70
2023-01-18T01:50:12.619Z,80.70
2023-01-18T01:52:44.940Z,80.60
2023-01-18T01:55:18.705Z,80.50
2023-01-18T01:57:52.149Z,80.60
2023-01-18T02:00:24.264Z,80.50
2023-01-18T02:02:55.944Z,80.50
2023-01-18T02:05:24.984Z,80.50
2023-01-18T02:07:53.453Z,80.60
2023-01-18T02:10:21.884Z,80.60
2023-01-18T02:12:53.646Z,80.60
2023-01-18T02:15:27.407Z,80.50
2023-01-18T02:18:09.629Z,80.40
2023-01-18T02:21:12.175Z,80.40
2023-01-18T02:24:23.785Z,80.50
2023-01-18T02:27:00.787Z,80.40
2023-01-18T02:29:42.134Z,80.40
2023-01-18T02:32:21.137Z,80.40
2023-01-18T02:34:52.558Z,80.30
2023-01-18T02:37:29.111Z,80.40
2023-01-18T02:40:10.450Z,80.40
2023-01-18T02:42:57.751Z,80.40
2023-01-18T02:45:51.385Z,80.40
2023-01-18T02:48:21.758Z,80.30
2023-01-18T02:50:50.162Z,80.30
2023-01-18T02:53:18.509Z,80.30
2023-01-18T02:55:52.901Z,80.30
2023-01-18T02:58:26.791Z,80.30
2023-01-18T03:01:00.824Z,80.20
2023-01-18T03:03:29.810Z,80.30
2023-01-18T03:06:01.695Z,80.20
2023-01-18T03:08:35.598Z,80.90
2023-01-18T03:11:08.703Z,80.20
2023-01-18T03:13:50.211Z,80.10
2023-01-18T03:16:24.257Z,80.10
2023-01-18T03:19:04.246Z,80.10
2023-01-18T03:21:38.633Z,80.00
2023-01-18T03:24:08.389Z,79.90
2023-01-18T03:26:40.696Z,79.90
2023-01-18T03:29:26.826Z,79.90
2023-01-18T03:32:19.600Z,79.80
2023-01-18T03:34:53.156Z,79.80
2023-01-18T03:37:27.338Z,79.80
2023-01-18T03:39:58.583Z,79.70
2023-01-18T03:42:30.965Z,79.70
2023-01-18T03:45:08.195Z,79.70
2023-01-18T03:47:38.547Z,79.70
2023-01-18T03:50:07.204Z,79.60
2023-01-18T03:52:42.457Z,79.40
2023-01-18T03:55:15.432Z,79.40
2023-01-18T03:57:47.611Z,79.30
2023-01-18T04:00:16.280Z,79.30
2023-01-18T04:02:48.297Z,79.40
2023-01-18T04:05:17.290Z,79.40
2023-01-18T04:07:45.623Z,79.30
2023-01-18T04:10:13.910Z,79.30
2023-01-18T04:12:41.928Z,79.20
2023-01-18T04:15:11.228Z,79.10
2023-01-18T04:17:39.708Z,79.00
2023-01-18T04:20:10.958Z,78.90
2023-01-18T04:22:39.116Z,78.90
2023-01-18T04:25:07.990Z,78.90
2023-01-18T04:27:36.031Z,79.00
2023-01-18T04:30:06.311Z,78.90
2023-01-18T04:32:34.639Z,78.90
2023-01-18T04:35:02.759Z,78.90
2023-01-18T04:37:34.093Z,79.00
2023-01-18T04:40:02.234Z,78.90
2023-01-18T04:42:30.437Z,78.90
2023-01-18T04:44:59.850Z,78.90
2023-01-18T04:47:29.005Z,79.00
2023-01-18T04:49:57.986Z,78.90
2023-01-18T04:52:26.826Z,78.90
2023-01-18T04:54:56.324Z,78.80
2023-01-18T04:57:24.397Z,78.80
2023-01-18T04:59:52.430Z,78.70
2023-01-18T05:02:20.564Z,78.80
2023-01-18T05:04:48.827Z,78.80
2023-01-18T05:07:17.388Z,78.80
2023-01-18T05:09:45.445Z,78.70
2023-01-18T05:12:14.831Z,78.70
2023-01-18T05:14:42.928Z,78.70
2023-01-18T05:17:10.979Z,78.70
2023-01-18T05:19:40.450Z,78.60
2023-01-18T05:22:08.492Z,78.60
2023-01-18T05:24:36.714Z,78.60
2023-01-18T05:27:05.069Z,78.60
2023-01-18T05:29:34.628Z,78.60
2023-01-18T05:32:02.685Z,78.50
2023-01-18T05:34:30.741Z,78.60
2023-01-18T05:36:58.854Z,78.40
2023-01-18T05:39:27.004Z,78.50
2023-01-18T05:41:55.025Z,78.50
2023-01-18T05:44:23.080Z,78.40
2023-01-18T05:46:52.508Z,78.30
2023-01-18T05:49:20.631Z,78.40
2023-01-18T05:51:48.817Z,78.30
2023-01-18T05:54:17.065Z,78.30
2023-01-18T05:56:45.071Z,78.30
2023-01-18T05:59:14.559Z,78.30
2023-01-18T06:01:42.692Z,78.20
2023-01-18T06:04:12.251Z,78.30
2023-01-18T06:06:40.330Z,78.10
2023-01-18T06:09:08.532Z,78.10
2023-01-18T06:11:36.583Z,78.00
2023-01-18T06:14:04.764Z,78.10
2023-01-18T06:16:32.831Z,78.20
2023-01-18T06:19:00.988Z,78.00
2023-01-18T06:21:30.470Z,78.00
2023-01-18T06:23:58.623Z,78.00
2023-01-18T06:26:26.659Z,78.20
2023-01-18T06:28:54.776Z,78.20
2023-01-18T06:31:23.128Z,78.10
2023-01-18T06:33:51.283Z,78.10
2023-01-18T06:36:19.480Z,78.10
2023-01-18T06:38:48.972Z,78.00
2023-01-18T06:41:17.178Z,78.00
2023-01-18T06:43:45.299Z,78.00
2023-01-18T06:46:13.536Z,78.00
2023-01-18T06:48:41.706Z,77.80
2023-01-18T06:51:09.740Z,77.80
2023-01-18T06:53:38.103Z,77.90
2023-01-18T06:56:10.452Z,77.90
2023-01-18T06:58:38.731Z,77.90
2023-01-18T07:01:07.676Z,77.90
2023-01-18T07:03:35.826Z,77.90
2023-01-18T07:06:06.371Z,77.80
2023-01-18T07:08:35.438Z,77.80
2023-01-18T07:11:09.887Z,77.70
2023-01-18T07:13:40.176Z,77.80
2023-01-18T07:16:17.490Z,77.80
2023-01-18T07:18:47.696Z,77.80
2023-01-18T07:21:17.977Z,77.70
2023-01-18T07:23:46.299Z,77.70
2023-01-18T07:26:17.932Z,77.70
2023-01-18T07:28:46.825Z,77.60
2023-01-18T07:31:15.768Z,77.60
2023-01-18T07:33:44.251Z,77.60
2023-01-18T07:36:12.847Z,77.60
2023-01-18T07:38:41.198Z,77.60
2023-01-18T07:41:11.887Z,77.70
2023-01-18T07:43:42.704Z,77.70
2023-01-18T07:46:13.904Z,77.60
2023-01-18T07:48:42.050Z,77.60
2023-01-18T07:51:11.808Z,77.70
2023-01-18T07:53:40.424Z,77.60
2023-01-18T07:56:10.128Z,77.50
2023-01-18T07:58:38.395Z,77.50
2023-01-18T08:01:09.892Z,77.50
2023-01-18T08:03:39.056Z,77.50
2023-01-18T08:06:09.007Z,77.60
2023-01-18T08:08:37.947Z,77.60
2023-01-18T08:11:07.969Z,77.60
2023-01-18T08:13:36.345Z,77.60
2023-01-18T08:16:08.232Z,77.60
2023-01-18T08:18:36.622Z,77.50
2023-01-18T08:21:04.954Z,77.60
2023-01-18T08:23:33.013Z,77.50
2023-01-18T08:26:04.330Z,77.40
2023-01-18T08:28:32.483Z,77.40
2023-01-18T08:31:10.327Z,77.40
2023-01-18T08:33:45.378Z,77.40
2023-01-18T08:36:15.211Z,77.50
2023-01-18T08:38:58.944Z,77.50
2023-01-18T08:41:30.081Z,77.50
2023-01-18T08:44:00.346Z,77.50
2023-01-18T08:46:29.941Z,77.40
2023-01-18T08:48:59.097Z,77.50
2023-01-18T08:51:27.141Z,77.50
2023-01-18T08:53:56.603Z,77.50
2023-01-18T08:56:24.671Z,77.50
2023-01-18T08:58:52.845Z,77.50
2023-01-18T09:01:23.199Z,77.50
2023-01-18T09:03:55.672Z,77.60
2023-01-18T09:06:25.263Z,77.60
2023-01-18T09:08:53.447Z,77.60
2023-01-18T09:11:21.515Z,77.50
2023-01-18T09:14:00.272Z,77.50
2023-01-18T09:16:29.739Z,77.50
2023-01-18T09:18:59.846Z,77.50
2023-01-18T09:21:29.113Z,77.50
2023-01-18T09:23:57.945Z,77.40
2023-01-18T09:26:27.887Z,77.40
2023-01-18T09:28:56.100Z,77.40
2023-01-18T09:31:25.858Z,77.40
2023-01-18T09:33:54.741Z,77.40
2023-01-18T09:36:26.875Z,77.30
2023-01-18T09:38:56.018Z,77.40
2023-01-18T09:41:33.097Z,77.40
2023-01-18T09:44:06.851Z,77.40
2023-01-18T09:46:37.165Z,77.50
2023-01-18T09:49:14.263Z,77.50
2023-01-18T09:51:52.010Z,77.50
2023-01-18T09:54:30.987Z,77.40
2023-01-18T09:57:04.316Z,77.60
2023-01-18T09:59:39.955Z,77.50
2023-01-18T10:02:19.734Z,77.40
2023-01-18T10:04:54.103Z,77.50
2023-01-18T10:07:27.089Z,77.50
2023-01-18T10:09:58.517Z,77.40
2023-01-18T10:12:34.916Z,77.30
2023-01-18T10:15:10.601Z,77.40
2023-01-18T10:17:41.376Z,77.40
2023-01-18T10:20:17.912Z,77.40
2023-01-18T10:22:53.022Z,77.30
2023-01-18T10:25:27.982Z,77.30
2023-01-18T10:28:26.582Z,77.30
2023-01-18T10:31:05.522Z,77.30
2023-01-18T10:33:38.262Z,77.30
2023-01-18T10:36:12.343Z,77.30
2023-01-18T10:38:42.507Z,77.30
2023-01-18T10:41:19.685Z,77.30
2023-01-18T10:43:47.857Z,77.20
2023-01-18T10:46:18.834Z,77.20
2023-01-18T10:48:48.823Z,77.20
2023-01-18T10:51:28.051Z,77.30
2023-01-18T10:53:58.133Z,77.20
2023-01-18T10:56:28.050Z,77.10
2023-01-18T10:58:58.793Z,77.20
2023-01-18T11:01:29.901Z,77.10
2023-01-18T11:04:05.973Z,77.00
2023-01-18T11:06:46.356Z,77.00
2023-01-18T11:09:42.161Z,76.90
2023-01-18T11:12:37.365Z,76.90
2023-01-18T11:15:32.092Z,76.80
2023-01-18T11:18:02.619Z,76.90
2023-01-18T11:20:38.599Z,76.90
2023-01-18T11:23:16.238Z,76.90
2023-01-18T11:25:52.630Z,76.90
2023-01-18T11:28:22.703Z,76.90
2023-01-18T11:30:56.863Z,76.80
2023-01-18T11:33:27.435Z,76.60
2023-01-18T11:35:58.490Z,76.50
2023-01-18T11:38:32.409Z,76.40
2023-01-18T11:41:15.343Z,76.40
2023-01-18T11:43:54.866Z,76.50
2023-01-18T11:46:34.859Z,76.40
2023-01-18T11:49:10.258Z,76.30
2023-01-18T11:51:45.837Z,76.20
2023-01-18T11:54:25.194Z,76.10
2023-01-18T11:56:56.885Z,76.10
2023-01-18T11:59:29.608Z,76.00
2023-01-18T12:02:21.104Z,76.00
2023-01-18T12:05:05.593Z,76.00
2023-01-18T12:07:45.996Z,75.90
2023-01-18T12:10:21.315Z,75.80
2023-01-18T12:13:05.705Z,75.80
2023-01-18T12:16:00.975Z,75.60
2023-01-18T12:18:57.089Z,75.70
2023-01-18T12:21:33.587Z,75.60
2023-01-18T12:24:19.056Z,75.50
2023-01-18T12:26:55.382Z,75.50
2023-01-18T12:29:55.722Z,75.50
2023-01-18T12:32:36.915Z,75.40
2023-01-18T12:35:26.754Z,75.40
2023-01-18T12:38:02.021Z,75.30
2023-01-18T12:40:41.997Z,75.20
2023-01-18T12:43:26.130Z,75.10
2023-01-18T12:45:59.986Z,75.10
2023-01-18T12:48:31.859Z,75.80
2023-01-18T12:51:01.458Z,75.10
2023-01-18T12:53:37.758Z,75.10
2023-01-18T12:56:14.439Z,74.90
2023-01-18T12:58:44.102Z,75.00
2023-01-18T13:01:20.343Z,75.00
2023-01-18T13:03:54.743Z,75.00
2023-01-18T13:06:23.928Z,75.00
2023-01-18T13:08:58.371Z,74.90
2023-01-18T13:11:28.668Z,74.80
2023-01-18T13:14:06.401Z,74.80
2023-01-18T13:16:44.429Z,74.80
2023-01-18T13:19:18.099Z,74.80
2023-01-18T13:21:56.565Z,74.80
2023-01-18T13:24:37.496Z,74.80
2023-01-18T13:27:11.153Z,74.70
2023-01-18T13:29:40.028Z,74.80
2023-01-18T13:32:42.368Z,74.80
2023-01-18T13:35:22.591Z,74.60
2023-01-18T13:37:55.807Z,74.70
2023-01-18T13:40:52.916Z,74.70
2023-01-18T13:43:33.825Z,74.80
2023-01-18T13:46:04.701Z,74.70
2023-01-18T13:48:45.610Z,74.70
2023-01-18T13:51:52.273Z,74.50
2023-01-18T13:55:04.123Z,74.40
2023-01-18T13:57:34.560Z,74.30
2023-01-18T14:00:02.738Z,74.40
2023-01-18T14:02:34.187Z,74.40
2023-01-18T14:05:09.649Z,74.40
2023-01-18T14:07:42.847Z,74.30
2023-01-18T14:10:31.613Z,74.20
2023-01-18T14:13:02.198Z,74.20
2023-01-18T14:15:47.967Z,74.30
2023-01-18T14:18:21.984Z,74.30
2023-01-18T14:20:58.538Z,74.20
2023-01-18T14:24:07.526Z,74.20
2023-01-18T14:26:40.173Z,74.20
2023-01-18T14:29:12.924Z,74.20
2023-01-18T14:31:44.411Z,74.20
2023-01-18T14:34:26.229Z,74.20
2023-01-18T14:36:55.083Z,74.20
2023-01-18T14:39:23.749Z,74.10
2023-01-18T14:41:57.122Z,74.10
2023-01-18T14:44:28.169Z,74.10
2023-01-18T14:46:57.913Z,74.10
2023-01-18T14:49:28.061Z,74.10
2023-01-18T14:51:56.513Z,74.00
2023-01-18T14:54:25.989Z,73.90
2023-01-18T14:57:03.979Z,73.90
2023-01-18T14:59:33.281Z,74.00
2023-01-18T15:02:03.428Z,73.90
2023-01-18T15:04:35.338Z,73.90
2023-01-18T15:07:05.707Z,73.90
2023-01-18T15:09:36.693Z,73.90
2023-01-18T15:12:09.512Z,73.90
2023-01-18T15:14:44.268Z,73.90
2023-01-18T15:17:21.560Z,73.90
2023-01-18T15:19:53.021Z,73.90
2023-01-18T15:22:25.617Z,73.80
2023-01-18T15:24:53.765Z,73.90
2023-01-18T15:27:23.297Z,73.90
2023-01-18T15:29:53.941Z,73.90
2023-01-18T15:32:23.758Z,74.00
2023-01-18T15:34:54.259Z,74.00
2023-01-18T15:37:26.245Z,74.10
2023-01-18T15:40:00.745Z,74.10
2023-01-18T15:42:34.055Z,74.10
2023-01-18T15:45:02.398Z,74.20
2023-01-18T15:47:36.846Z,74.20
2023-01-18T15:50:16.797Z,74.30
2023-01-18T15:52:47.894Z,74.40
2023-01-18T15:55:23.416Z,74.40
2023-01-18T15:58:00.671Z,74.40
2023-01-18T16:00:32.415Z,74.40
2023-01-18T16:03:00.491Z,74.50
2023-01-18T16:05:29.371Z,74.50
2023-01-18T16:08:19.550Z,74.60
2023-01-18T16:10:53.963Z,74.70
2023-01-18T16:13:38.406Z,74.60
2023-01-18T16:16:15.579Z,74.60
2023-01-18T16:18:47.525Z,74.60
2023-01-18T16:21:23.586Z,74.60
2023-01-18T16:23:53.625Z,74.50
2023-01-18T16:26:30.551Z,74.50
2023-01-18T16:29:11.420Z,74.50
2023-01-18T16:31:42.760Z,74.40
2023-01-18T16:34:25.845Z,74.40
2023-01-18T16:36:55.018Z,74.50
2023-01-18T16:39:24.562Z,74.50
2023-01-18T16:41:57.347Z,74.40
2023-01-18T16:44:27.655Z,74.50
2023-01-18T16:46:55.708Z,74.50
2023-01-18T16:49:23.797Z,74.50
2023-01-18T16:51:51.807Z,74.50
2023-01-18T16:54:20.096Z,74.50
2023-01-18T16:56:48.290Z,74.50
2023-01-18T16:59:18.425Z,74.40
2023-01-18T17:01:48.074Z,74.40
2023-01-18T17:04:16.788Z,74.50
2023-01-18T17:06:45.625Z,74.60
2023-01-18T17:09:22.978Z,74.60
2023-01-18T17:11:51.720Z,74.60
2023-01-18T17:14:20.602Z,74.60
2023-01-18T17:16:50.540Z,74.50
2023-01-18T17:19:20.295Z,74.60
2023-01-18T17:21:49.336Z,74.50
2023-01-18T17:24:20.478Z,74.60
2023-01-18T17:26:49.004Z,74.60
2023-01-18T17:29:21.147Z,74.70
2023-01-18T17:31:52.986Z,74.70
2023-01-18T17:34:27.369Z,74.70
2023-01-18T17:36:58.821Z,74.60
2023-01-18T17:39:42.478Z,74.60
2023-01-18T17:42:22.346Z,74.60
2023-01-18T17:45:02.986Z,74.60
2023-01-18T17:47:33.781Z,74.60
2023-01-18T17:50:08.539Z,74.60
2023-01-18T17:52:37.287Z,74.60
2023-01-18T17:55:06.186Z,74.60
2023-01-18T17:57:34.500Z,74.60
2023-01-18T18:00:02.765Z,74.60
2023-01-18T18:02:32.290Z,74.70
2023-01-18T18:05:00.387Z,74.70
2023-01-18T18:07:28.572Z,74.80
2023-01-18T18:10:00.951Z,74.80
2023-01-18T18:12:29.472Z,74.70
2023-01-18T18:14:58.092Z,74.70
2023-01-18T18:17:27.936Z,74.70
2023-01-18T18:19:57.561Z,74.70
2023-01-18T18:22:26.022Z,74.70
2023-01-18T18:24:54.325Z,74.70
2023-01-18T18:27:24.812Z,74.70
2023-01-18T18:29:54.787Z,74.80
2023-01-18T18:32:22.861Z,74.80
2023-01-18T18:34:50.929Z,74.80
2023-01-18T18:37:20.360Z,74.80
2023-01-18T18:39:48.461Z,74.80
2023-01-18T18:42:16.488Z,74.80
2023-01-18T18:44:44.584Z,74.80
2023-01-18T18:47:13.377Z,74.90
2023-01-18T18:49:41.556Z,74.90
2023-01-18T18:52:09.604Z,75.00
2023-01-18T18:54:39.026Z,75.00
2023-01-18T18:57:07.604Z,75.10
2023-01-18T18:59:35.751Z,75.10
2023-01-18T19:02:03.869Z,75.20
2023-01-18T19:04:32.086Z,75.20
2023-01-18T19:07:00.373Z,75.20
2023-01-18T19:09:28.480Z,75.30
2023-01-18T19:11:57.932Z,75.30
2023-01-18T19:14:26.759Z,75.30
2023-01-18T19:16:54.963Z,75.30
2023-01-18T19:19:24.276Z,75.30
2023-01-18T19:21:53.485Z,75.30
2023-01-18T19:24:21.655Z,75.20
2023-01-18T19:26:49.662Z,75.30
2023-01-18T19:29:19.348Z,75.20
2023-01-18T19:31:47.426Z,75.20
2023-01-18T19:34:15.818Z,75.40
2023-01-18T19:36:43.870Z,75.40
2023-01-18T19:39:21.840Z,75.40
2023-01-18T19:41:50.603Z,75.30
2023-01-18T19:44:20.292Z,75.40
2023-01-18T19:46:48.357Z,75.40
2023-01-18T19:49:20.006Z,75.50
2023-01-18T19:51:48.192Z,75.50
2023-01-18T19:54:16.315Z,75.50
2023-01-18T19:56:44.414Z,75.50
2023-01-18T19:59:14.516Z,75.50
2023-01-18T20:01:45.166Z,75.50
2023-01-18T20:04:13.921Z,75.50
2023-01-18T20:06:45.947Z,75.50
2023-01-18T20:09:19.866Z,75.50
2023-01-18T20:11:49.781Z,75.50
2023-01-18T20:14:18.431Z,75.50
2023-01-18T20:16:48.860Z,75.50
2023-01-18T20:19:19.189Z,75.50
2023-01-18T20:21:47.908Z,75.50
2023-01-18T20:24:16.241Z,75.40
2023-01-18T20:26:44.883Z,75.30
2023-01-18T20:29:13.264Z,75.50
2023-01-18T20:31:46.565Z,75.30
2023-01-18T20:34:19.026Z,75.30
2023-01-18T20:36:49.955Z,75.30
2023-01-18T20:39:19.021Z,75.30
2023-01-18T20:41:48.728Z,75.40
2023-01-18T20:44:17.060Z,76.10
2023-01-18T20:46:46.374Z,75.30
2023-01-18T20:49:15.595Z,75.20
2023-01-18T20:51:44.992Z,75.20
2023-01-18T20:54:13.308Z,75.20
2023-01-18T20:56:41.401Z,75.20
2023-01-18T20:59:09.555Z,75.20
2023-01-18T21:01:37.710Z,75.20
2023-01-18T21:04:06.352Z,75.20
2023-01-18T21:06:34.464Z,75.20
2023-01-18T21:09:04.198Z,75.20
2023-01-18T21:11:32.240Z,75.20
2023-01-18T21:14:00.542Z,75.30
2023-01-18T21:16:28.776Z,75.30
2023-01-18T21:18:58.906Z,75.40
2023-01-18T21:21:29.326Z,75.40
2023-01-18T21:23:57.456Z,75.50
2023-01-18T21:26:26.988Z,75.40
2023-01-18T21:28:55.615Z,75.30
2023-01-18T21:31:23.974Z,75.40
2023-01-18T21:33:54.512Z,75.40
2023-01-18T21:36:23.031Z,75.40
2023-01-18T21:38:51.272Z,75.40
2023-01-18T21:41:37.041Z,75.50
2023-01-18T21:44:24.387Z,75.40
2023-01-18T21:46:54.209Z,75.30
2023-01-18T21:50:04.020Z,75.40
2023-01-18T21:52:47.899Z,75.40
2023-01-18T21:55:17.147Z,75.40
2023-01-18T21:57:45.389Z,75.40
2023-01-18T22:00:15.975Z,75.40
2023-01-18T22:02:44.031Z,75.50
2023-01-18T22:05:12.127Z,75.50
2023-01-18T22:07:40.146Z,75.40
2023-01-18T22:10:08.926Z,75.40
2023-01-18T22:12:38.975Z,75.50
2023-01-18T22:15:08.024Z,75.50
2023-01-18T22:17:37.425Z,75.60
2023-01-18T22:20:06.680Z,75.60
2023-01-18T22:22:34.723Z,75.60
2023-01-18T22:25:02.782Z,75.60
2023-01-18T22:27:30.899Z,75.60
2023-01-18T22:29:59.214Z,75.70
2023-01-18T22:32:27.293Z,75.70
2023-01-18T22:34:56.817Z,75.60
2023-01-18T22:37:25.942Z,75.60
2023-01-18T22:39:54.120Z,75.60
2023-01-18T22:42:22.171Z,75.70
2023-01-18T22:44:50.245Z,75.50
2023-01-18T22:47:18.278Z,75.60
2023-01-18T22:49:46.551Z,75.60
2023-01-18T22:52:16.018Z,75.60
2023-01-18T22:54:44.050Z,75.70
2023-01-18T22:57:12.137Z,75.60
2023-01-18T22:59:40.341Z,75.70
2023-01-18T23:02:09.249Z,75.70
2023-01-18T23:04:37.468Z,75.70
2023-01-18T23:07:05.543Z,75.70
2023-01-18T23:09:35.035Z,75.70
2023-01-18T23:12:03.154Z,75.70
2023-01-18T23:14:49.132Z,75.70
2023-01-18T23:17:34.785Z,75.70
2023-01-18T23:20:03.011Z,75.70
2023-01-18T23:22:31.210Z,75.60
2023-01-18T23:25:00.661Z,75.60
2023-01-18T23:27:28.698Z,75.60
2023-01-18T23:29:58.790Z,75.50
2023-01-18T23:32:30.296Z,75.60
2023-01-18T23:34:59.029Z,75.70
2023-01-18T23:37:27.889Z,75.70
2023-01-18T23:40:13.099Z,75.70
2023-01-18T23:43:00.369Z,75.60
2023-01-18T23:45:45.958Z,75.80
2023-01-18T23:48:33.130Z,75.80
2023-01-18T23:51:18.750Z,75.80
2023-01-18T23:54:04.724Z,75.80
2023-01-18T23:56:32.990Z,75.80
2023-01-18T23:59:02.545Z,75.80
